Terminal Aerodrome Forecast
Issued by NWS

Home | Current Version | Previous Version | Text Only | Print | Product List | Glossary On
Versions: 1 2 3 4 5 6 7 8 9 10 11 12 13 14
000
FTPQ31 PGUM 191730
TAFKWA
TAF
PKWA 191730Z 1918/2018 05014G22KT P6SM VCSH SCT016 SCT040 BKN120
      TEMPO 1918/1922 5SM SHRA SCT016 BKN030=

USA.gov is the U.S. government's official web portal to all federal, state and local government web resources and services.